Time;durP1;ratioP1;P1;durP2;ratioP2;P2;SDS_P1;SDS_P2;PMS_P1;PMS_P2;Temp;Humidity;BMP_temperature;BMP_pressure;BME280_temperature;BME280_humidity;BME280_pressure;Samples;Min_cycle;Max_cycle;Signal;HPM_P1;HPM_P2
2022/06/10 00:00:23;;;;;;;;;3.33;2.33;;;;;19.69;51.21;101808.94;6248852;22;45619;-81
2022/06/10 00:02:48;;;;;;;;;5.75;4.50;;;;;19.70;51.06;101810.72;6219833;22;45380;-80
2022/06/10 00:05:18;;;;;;;;;4.00;4.00;;;;;19.73;51.19;101810.63;6247804;22;45474;-79
2022/06/10 00:07:44;;;;;;;;;4.00;3.75;;;;;19.73;50.74;101804.41;6247883;22;45346;-80
2022/06/10 00:10:13;;;;;;;;;3.33;3.33;;;;;19.73;50.89;101801.75;6219823;22;47614;-80
2022/06/10 00:12:38;;;;;;;;;4.00;3.75;;;;;19.76;51.27;101799.84;6247470;22;45162;-80
2022/06/10 00:15:06;;;;;;;;;3.00;2.00;;;;;19.77;50.79;101804.28;6248164;22;45378;-80
2022/06/10 00:17:31;;;;;;;;;4.00;3.00;;;;;19.78;51.14;101798.03;6247970;22;45399;-80
2022/06/10 00:19:57;;;;;;;;;2.00;2.00;;;;;19.78;51.17;101802.47;6247463;22;46371;-80
2022/06/10 00:22:22;;;;;;;;;2.33;1.33;;;;;19.77;51.08;101798.06;6247557;22;45389;-80
2022/06/10 00:24:48;;;;;;;;;3.33;3.33;;;;;19.78;50.86;101798.03;6220182;22;45323;-80
2022/06/10 00:27:14;;;;;;;;;6.25;5.25;;;;;19.79;51.10;101799.78;6247734;22;45610;-80
2022/06/10 00:29:40;;;;;;;;;4.00;4.00;;;;;19.77;50.91;101798.94;6247589;22;45249;-80
2022/06/10 00:32:05;;;;;;;;;3.33;3.33;;;;;19.75;51.20;101795.44;6219942;22;45240;-80
2022/06/10 00:34:35;;;;;;;;;3.75;3.75;;;;;19.75;51.10;101797.22;6248017;22;45330;-80
2022/06/10 00:37:01;;;;;;;;;4.00;2.33;;;;;19.75;50.92;101797.22;6220353;22;46133;-80
2022/06/10 00:39:26;;;;;;;;;4.25;4.00;;;;;19.74;51.20;101800.81;6247265;22;46098;-80
2022/06/10 00:41:52;;;;;;;;;5.00;4.00;;;;;19.72;51.05;101800.84;6247749;22;45377;-80
2022/06/10 00:44:52;;;;;;;;;3.50;3.50;;;;;19.70;51.17;101799.13;6247854;22;45566;-80
2022/06/10 00:47:17;;;;;;;;;3.00;3.00;;;;;19.69;50.75;101798.25;6245540;22;45426;-80
2022/06/10 00:49:47;;;;;;;;;4.00;2.00;;;;;19.69;51.08;101797.38;6247333;22;46262;-80
2022/06/10 00:52:22;;;;;;;;;3.75;3.50;;;;;19.67;51.51;101791.19;6247636;22;45190;-80
2022/06/10 00:54:51;;;;;;;;;3.00;3.00;;;;;19.66;51.29;101800.09;6246714;22;45235;-80
2022/06/10 00:57:20;;;;;;;;;3.50;3.50;;;;;19.63;51.17;101790.34;6247165;22;45564;-80
2022/06/10 00:59:59;;;;;;;;;5.75;3.50;;;;;19.62;51.15;101785.94;6219713;22;47034;-80
2022/06/10 01:02:28;;;;;;;;;3.25;2.25;;;;;19.62;51.07;101772.59;6219822;22;45414;-80
2022/06/10 01:04:55;;;;;;;;;4.00;3.00;;;;;19.59;51.22;101776.22;6220263;22;45234;-80
2022/06/10 01:07:26;;;;;;;;;4.33;4.33;;;;;19.59;51.31;101786.00;6247431;22;45301;-80
2022/06/10 01:09:53;;;;;;;;;3.00;3.00;;;;;19.57;51.41;101786.03;6247303;22;46182;-80
2022/06/10 01:12:46;;;;;;;;;3.67;2.00;;;;;19.54;51.74;101783.44;6247106;22;45182;-80
2022/06/10 01:15:30;;;;;;;;;3.33;3.33;;;;;19.51;51.58;101783.53;6247678;22;45403;-80
2022/06/10 01:18:20;;;;;;;;;4.00;3.00;;;;;19.49;51.78;101784.47;6247939;22;45608;-80
2022/06/10 01:21:23;;;;;;;;;5.67;4.67;;;;;19.44;51.93;101786.38;6247226;22;46570;-80
2022/06/10 01:24:01;;;;;;;;;4.00;4.00;;;;;19.42;51.70;101785.53;6221935;22;45665;-79
2022/06/10 01:26:32;;;;;;;;;5.33;3.00;;;;;19.43;51.56;101784.59;6249080;22;45355;-80
2022/06/10 01:29:16;;;;;;;;;3.00;3.00;;;;;19.42;51.49;101782.88;6247432;22;45281;-80
2022/06/10 01:31:49;;;;;;;;;2.00;2.00;;;;;19.44;51.56;101783.72;6248648;22;46709;-80
2022/06/10 01:34:26;;;;;;;;;3.00;3.00;;;;;19.43;52.19;101780.13;6250445;22;45194;-80
2022/06/10 01:37:22;;;;;;;;;5.00;4.00;;;;;19.43;51.85;101782.81;6220530;22;45170;-79
2022/06/10 01:40:24;;;;;;;;;3.33;2.00;;;;;19.44;51.76;101781.03;6251912;22;45395;-79
2022/06/10 01:43:03;;;;;;;;;3.50;3.00;;;;;19.40;51.86;101780.22;6264273;22;45192;-80
2022/06/10 01:45:37;;;;;;;;;3.67;2.67;;;;;19.39;51.94;101779.34;6241319;22;44755;-80
2022/06/10 01:48:43;;;;;;;;;4.00;4.00;;;;;19.38;51.80;101784.75;6264902;22;45183;-79
2022/06/10 01:51:29;;;;;;;;;2.00;2.00;;;;;19.35;51.90;101783.03;6228269;22;45698;-79
2022/06/10 01:54:13;;;;;;;;;6.00;5.00;;;;;19.32;52.01;101783.06;6255784;22;45569;-79
2022/06/10 01:56:47;;;;;;;;;3.67;2.33;;;;;19.31;52.37;101777.78;6246494;22;45265;-80
2022/06/10 01:59:24;;;;;;;;;3.75;3.75;;;;;19.29;51.95;101782.28;6247929;22;45087;-80
2022/06/10 02:01:56;;;;;;;;;2.67;2.67;;;;;19.25;52.24;101783.28;6219947;22;45820;-80
2022/06/10 02:04:38;;;;;;;;;3.25;3.25;;;;;19.22;52.19;101784.22;6248101;22;46292;-81
2022/06/10 02:07:14;;;;;;;;;4.00;4.00;;;;;19.21;52.13;101782.44;6247701;22;45336;-80
2022/06/10 02:09:46;;;;;;;;;3.00;3.00;;;;;19.20;52.58;101785.16;6219760;22;45286;-80
2022/06/10 02:12:31;;;;;;;;;4.00;3.67;;;;;19.16;52.40;101795.91;6247783;22;45380;-80
2022/06/10 02:15:06;;;;;;;;;2.00;2.00;;;;;19.13;52.21;101793.28;6219482;22;46083;-80
2022/06/10 02:17:39;;;;;;;;;4.00;3.00;;;;;19.11;52.43;101794.25;6247456;22;45307;-80
2022/06/10 02:20:09;;;;;;;;;3.67;3.00;;;;;19.07;52.64;101790.75;6247728;22;45337;-80
2022/06/10 02:22:45;;;;;;;;;2.67;2.33;;;;;19.04;52.56;101798.84;6247162;22;45434;-80
2022/06/10 02:25:24;;;;;;;;;4.00;3.00;;;;;19.01;52.29;101795.38;6219557;22;47191;-80
2022/06/10 02:27:56;;;;;;;;;3.00;3.00;;;;;18.99;52.45;101798.06;6248100;22;45512;-81
2022/06/10 02:30:28;;;;;;;;;4.75;2.75;;;;;18.96;52.56;101790.13;6220461;22;45234;-80
2022/06/10 02:32:58;;;;;;;;;3.00;3.00;;;;;18.93;52.46;101792.88;6249271;22;45302;-80
2022/06/10 02:35:35;;;;;;;;;6.33;3.67;;;;;18.89;52.40;101797.38;6248854;22;45176;-80
2022/06/10 02:38:12;;;;;;;;;3.33;2.67;;;;;18.87;52.97;101795.66;6220612;22;45447;-81
2022/06/10 02:41:26;;;;;;;;;2.00;2.00;;;;;18.83;53.14;101805.53;6249184;22;45350;-80
2022/06/10 02:44:05;;;;;;;;;5.00;3.67;;;;;18.80;53.23;101804.72;6208232;22;45377;-80
2022/06/10 02:46:36;;;;;;;;;4.00;4.00;;;;;18.75;53.06;101794.13;6248499;22;45438;-80
2022/06/10 02:49:14;;;;;;;;;3.50;3.50;;;;;18.75;53.07;101798.59;6248233;22;45327;-80
2022/06/10 02:51:41;;;;;;;;;2.75;2.75;;;;;18.72;52.99;101800.38;6221113;22;45248;-80
2022/06/10 02:54:15;;;;;;;;;8.75;3.50;;;;;18.71;53.11;101800.41;6220679;22;45446;-80
2022/06/10 02:56:41;;;;;;;;;2.75;2.75;;;;;18.67;52.85;101794.25;6221530;22;47195;-81
2022/06/10 03:02:31;;;;;;;;;4.50;3.75;;;;;18.63;53.25;101803.25;6248928;22;45426;-80
2022/06/10 03:05:13;;;;;;;;;4.00;3.50;;;;;18.61;53.42;101801.53;6221112;22;45272;-80
2022/06/10 03:08:02;;;;;;;;;4.00;4.00;;;;;18.60;53.92;101797.06;6248870;22;45692;-80
2022/06/10 03:11:09;;;;;;;;;5.00;4.00;;;;;18.60;53.84;101805.06;6221025;22;45206;-80
2022/06/10 03:14:00;;;;;;;;;4.00;4.00;;;;;18.59;53.70;101814.88;6184479;22;45312;-80
2022/06/10 03:16:42;;;;;;;;;5.00;4.00;;;;;18.57;53.55;101808.69;6221602;22;46395;-81
2022/06/10 03:19:14;;;;;;;;;3.00;3.00;;;;;18.57;53.84;101821.16;6249951;22;46437;-80
2022/06/10 03:22:02;;;;;;;;;5.25;5.25;;;;;18.55;53.79;101829.19;6263579;22;44708;-80
2022/06/10 03:24:55;;;;;;;;;4.00;3.25;;;;;18.53;54.16;101831.00;6241836;22;44709;-79
2022/06/10 03:27:23;;;;;;;;;5.00;4.00;;;;;18.50;54.27;101823.06;6268206;22;45154;-81
2022/06/10 03:29:52;;;;;;;;;4.75;4.00;;;;;18.47;54.09;101831.09;6258700;22;45268;-80
2022/06/10 03:32:37;;;;;;;;;4.00;4.00;;;;;18.40;54.27;101833.00;6233341;22;45166;-79
2022/06/10 03:35:13;;;;;;;;;5.75;4.25;;;;;18.35;54.66;101826.88;6229594;22;45112;-80
2022/06/10 03:37:41;;;;;;;;;4.25;3.50;;;;;18.27;54.86;101821.69;6228691;22;45426;-80
2022/06/10 03:40:12;;;;;;;;;3.00;3.00;;;;;18.24;55.10;101828.88;6250320;22;45357;-80
2022/06/10 03:42:46;;;;;;;;;4.00;4.00;;;;;18.19;55.23;101818.28;6248126;22;45229;-80
2022/06/10 03:45:16;;;;;;;;;3.67;2.67;;;;;18.17;55.24;101821.88;6248250;22;45208;-81
2022/06/10 03:47:42;;;;;;;;;4.67;4.33;;;;;18.17;55.53;101827.22;6248056;22;45295;-81
2022/06/10 03:50:14;;;;;;;;;3.00;3.00;;;;;18.13;55.59;101821.06;6220693;22;47456;-81
2022/06/10 03:52:41;;;;;;;;;8.25;7.00;;;;;18.12;55.63;101831.75;6247874;22;45403;-80
2022/06/10 03:55:09;;;;;;;;;4.50;4.50;;;;;18.08;56.08;101825.59;6248092;22;45253;-80
2022/06/10 03:57:36;;;;;;;;;3.75;3.50;;;;;18.03;55.95;101823.00;6247728;22;45447;-80
2022/06/10 04:00:05;;;;;;;;;4.50;4.50;;;;;18.01;56.35;101819.47;6248081;22;45441;-80
2022/06/10 04:02:30;;;;;;;;;3.25;3.00;;;;;18.01;56.10;101818.63;6247135;22;45346;-80
2022/06/10 04:04:56;;;;;;;;;4.00;4.00;;;;;17.99;56.25;101820.41;6248025;22;45245;-80
2022/06/10 04:07:21;;;;;;;;;4.25;4.00;;;;;17.98;56.21;101829.31;6220416;22;45410;-80
2022/06/10 04:09:47;;;;;;;;;4.25;4.25;;;;;17.96;56.38;101826.72;6247880;22;46221;-81
2022/06/10 04:12:13;;;;;;;;;5.00;4.00;;;;;17.93;56.72;101829.41;6220209;22;45388;-80
2022/06/10 04:14:39;;;;;;;;;3.00;3.00;;;;;17.94;56.60;101838.28;6246442;22;45302;-80
2022/06/10 04:17:05;;;;;;;;;5.75;4.75;;;;;17.92;57.03;101837.44;6220433;22;45430;-80
2022/06/10 04:19:33;;;;;;;;;4.33;4.00;;;;;17.94;56.53;101846.28;6247958;22;46110;-80
2022/06/10 04:21:59;;;;;;;;;4.33;3.33;;;;;17.92;56.89;101845.44;6248831;22;45256;-80
2022/06/10 04:24:25;;;;;;;;;5.00;3.67;;;;;17.92;57.11;101845.44;6248288;22;45218;-80
2022/06/10 04:26:57;;;;;;;;;4.67;4.67;;;;;17.92;57.37;101850.75;6220850;22;45797;-80
2022/06/10 04:29:23;;;;;;;;;5.00;5.00;;;;;17.92;57.14;101851.63;6246274;22;47003;-80
2022/06/10 04:31:51;;;;;;;;;3.50;3.00;;;;;17.92;57.53;101854.28;6220862;22;45308;-80
2022/06/10 04:34:17;;;;;;;;;7.50;6.50;;;;;17.93;57.63;101858.72;6248448;22;45341;-80
2022/06/10 04:36:46;;;;;;;;;5.00;4.33;;;;;17.93;57.77;101848.03;6220753;22;45576;-80
2022/06/10 04:39:11;;;;;;;;;5.50;4.50;;;;;17.95;57.53;101856.03;6248665;22;45143;-80
2022/06/10 04:41:38;;;;;;;;;3.00;2.25;;;;;17.96;57.73;101855.13;6248171;22;45098;-80
2022/06/10 04:44:04;;;;;;;;;5.50;4.00;;;;;18.00;57.62;101856.84;6221107;22;45202;-80
2022/06/10 04:46:40;;;;;;;;;5.00;3.25;;;;;18.04;57.71;101864.75;6247975;22;45479;-80
2022/06/10 04:49:06;;;;;;;;;4.00;4.00;;;;;18.04;57.45;101856.78;6248034;22;45666;-80
2022/06/10 04:51:33;;;;;;;;;3.33;3.33;;;;;18.06;57.89;101859.38;6248458;22;45304;-80
2022/06/10 04:53:59;;;;;;;;;5.75;5.00;;;;;18.05;57.99;101858.50;6220146;22;45259;-80
2022/06/10 04:56:25;;;;;;;;;6.67;5.00;;;;;18.08;57.94;101854.91;6248786;22;45503;-80
2022/06/10 04:58:51;;;;;;;;;3.00;3.00;;;;;18.08;57.50;101857.59;6246787;22;46711;-80
2022/06/10 05:01:28;;;;;;;;;4.00;4.00;;;;;18.10;57.39;101858.44;6248418;22;45086;-79
2022/06/10 05:03:53;;;;;;;;;6.25;4.75;;;;;18.15;57.84;101861.00;6248292;22;45328;-80
2022/06/10 05:06:18;;;;;;;;;3.67;3.67;;;;;18.17;57.75;101861.88;6219974;22;45142;-80
2022/06/10 05:08:44;;;;;;;;;4.00;4.00;;;;;18.19;57.89;101858.28;6247359;22;45668;-80
2022/06/10 05:11:09;;;;;;;;;4.25;4.25;;;;;18.22;57.52;101863.53;6247542;22;45313;-80
2022/06/10 05:13:36;;;;;;;;;4.00;4.00;;;;;18.24;57.51;101856.41;6220329;22;45514;-80
2022/06/10 05:16:03;;;;;;;;;6.00;4.00;;;;;18.24;57.55;101856.41;6247687;22;45387;-80
2022/06/10 05:18:30;;;;;;;;;6.25;6.25;;;;;18.25;57.69;101859.94;6247437;22;46511;-80
2022/06/10 05:20:56;;;;;;;;;4.25;4.25;;;;;18.26;57.71;101859.94;6219874;22;45214;-80
2022/06/10 05:23:24;;;;;;;;;3.75;3.75;;;;;18.28;57.95;101865.22;6245181;22;45197;-80
2022/06/10 05:25:50;;;;;;;;;5.33;4.33;;;;;18.32;57.98;101858.06;6219891;22;45728;-80
2022/06/10 05:28:16;;;;;;;;;4.33;3.67;;;;;18.35;57.80;101860.69;6247290;22;45518;-80
2022/06/10 05:30:42;;;;;;;;;5.00;4.00;;;;;18.36;57.89;101863.28;6245372;22;45342;-80
2022/06/10 05:33:09;;;;;;;;;4.00;4.00;;;;;18.35;57.95;101869.53;6219823;22;45401;-80
2022/06/10 05:35:35;;;;;;;;;3.00;3.00;;;;;18.33;58.01;101866.03;6247426;22;45213;-80
2022/06/10 05:38:01;;;;;;;;;4.00;4.00;;;;;18.33;57.88;101858.03;6246980;22;45252;-80
2022/06/10 05:40:29;;;;;;;;;4.67;3.00;;;;;18.33;57.77;101865.16;6246819;22;45246;-80
2022/06/10 05:42:54;;;;;;;;;4.67;4.00;;;;;18.34;57.66;101872.25;6247127;22;45158;-80
2022/06/10 05:45:22;;;;;;;;;5.00;5.00;;;;;18.34;57.84;101870.47;6246592;22;45188;-80
2022/06/10 05:47:51;;;;;;;;;4.67;4.00;;;;;18.33;58.01;101871.34;6219379;22;47176;-80
2022/06/10 05:50:34;;;;;;;;;5.33;3.00;;;;;18.35;58.06;101885.53;6246953;22;45166;-80
2022/06/10 05:53:16;;;;;;;;;;;;;;;;;;;;;
2022/06/10 05:55:42;;;;;;;;;5.00;5.00;;;;;18.40;58.39;101886.34;6245645;22;72685;-80
2022/06/10 05:58:09;;;;;;;;;6.25;4.75;;;;;18.43;58.03;101890.75;6219094;22;46283;-80
2022/06/10 06:00:34;;;;;;;;;6.00;4.00;;;;;18.45;57.93;101887.16;6219651;22;45273;-79
2022/06/10 06:02:59;;;;;;;;;4.67;4.67;;;;;18.47;57.96;101893.34;6219060;22;45435;-80
2022/06/10 06:05:26;;;;;;;;;5.25;5.00;;;;;18.50;58.76;101898.59;6247424;22;45441;-81
2022/06/10 06:07:51;;;;;;;;;3.00;2.00;;;;;18.52;58.12;101898.56;6220671;22;47000;-80
2022/06/10 06:10:20;;;;;;;;;3.67;2.67;;;;;18.56;58.74;101902.94;6248130;22;45099;-80
2022/06/10 06:12:45;;;;;;;;;3.00;3.00;;;;;18.58;58.23;101903.81;6248233;22;45405;-81
2022/06/10 06:15:12;;;;;;;;;4.00;4.00;;;;;18.57;57.93;101909.16;6246011;22;45359;-81
2022/06/10 06:17:38;;;;;;;;;3.33;2.00;;;;;18.58;58.04;101910.91;6248267;22;45384;-80
2022/06/10 06:20:04;;;;;;;;;4.00;3.00;;;;;18.55;57.99;101909.19;6248374;22;45308;-80
2022/06/10 06:22:30;;;;;;;;;4.00;3.33;;;;;18.57;58.29;101911.81;6221251;22;45195;-80
2022/06/10 06:24:56;;;;;;;;;3.67;3.00;;;;;18.58;58.57;101914.47;6248244;22;45226;-80
2022/06/10 06:27:21;;;;;;;;;3.00;3.00;;;;;18.63;58.24;101917.03;6220668;22;47471;-80
2022/06/10 06:29:47;;;;;;;;;5.00;4.00;;;;;18.67;58.19;101918.75;6248384;22;45228;-80
2022/06/10 06:32:13;;;;;;;;;5.00;4.00;;;;;18.69;57.90;101911.59;6221129;22;45238;-80
2022/06/10 06:34:38;;;;;;;;;2.50;2.50;;;;;18.72;57.93;101919.56;6220435;22;45501;-80
2022/06/10 06:37:05;;;;;;;;;4.00;4.00;;;;;18.71;57.57;101915.09;6248146;22;45196;-80
2022/06/10 06:39:31;;;;;;;;;4.33;3.00;;;;;18.71;57.54;101915.09;6246154;22;45367;-80
2022/06/10 06:41:57;;;;;;;;;2.00;2.00;;;;;18.71;58.34;101916.00;6248329;22;45347;-80
2022/06/10 06:44:23;;;;;;;;;5.00;4.00;;;;;18.75;58.14;101915.97;6248113;22;45475;-80
2022/06/10 06:46:49;;;;;;;;;5.67;5.33;;;;;18.78;58.31;101914.13;6248108;22;45468;-80
2022/06/10 06:49:24;;;;;;;;;5.00;4.00;;;;;18.82;57.92;101917.59;6248194;22;45347;-80
2022/06/10 06:51:50;;;;;;;;;4.33;4.33;;;;;18.87;57.82;101921.06;6220960;22;45402;-80
2022/06/10 06:54:17;;;;;;;;;4.00;3.00;;;;;18.91;57.82;101912.09;6248159;22;45236;-80
2022/06/10 06:56:43;;;;;;;;;3.00;2.33;;;;;18.95;57.48;101913.78;6245978;22;48074;-80
2022/06/10 06:59:08;;;;;;;;;2.67;2.33;;;;;19.00;57.66;101922.59;6220284;22;45177;-80
2022/06/10 07:01:35;;;;;;;;;3.33;3.00;;;;;19.05;57.71;101918.03;6220614;22;45462;-80
2022/06/10 07:04:01;;;;;;;;;4.67;2.00;;;;;19.09;57.63;101918.88;6246046;22;45600;-80
2022/06/10 07:06:29;;;;;;;;;3.00;2.00;;;;;19.12;57.76;101925.03;6247774;22;46401;-80
2022/06/10 07:08:55;;;;;;;;;4.00;4.00;;;;;19.15;57.28;101914.28;6245952;22;45230;-80
2022/06/10 07:11:20;;;;;;;;;3.67;3.67;;;;;19.20;57.31;101908.84;6248247;22;45370;-80
2022/06/10 07:13:45;;;;;;;;;3.67;3.67;;;;;19.23;57.24;101903.44;6247932;22;45182;-80
2022/06/10 07:16:11;;;;;;;;;4.00;3.00;;;;;19.29;57.01;101908.63;6220205;22;46728;-80
2022/06/10 07:18:37;;;;;;;;;3.67;3.33;;;;;19.36;57.15;101901.41;6247384;22;45213;-80
2022/06/10 07:21:03;;;;;;;;;6.00;4.00;;;;;19.43;57.43;101912.81;6220621;22;45225;-80
2022/06/10 07:23:29;;;;;;;;;7.00;6.67;;;;;19.49;57.24;101910.91;6247326;22;45241;-80
2022/06/10 07:25:55;;;;;;;;;4.33;3.00;;;;;19.57;57.00;101916.06;6247377;22;45214;-80
2022/06/10 07:28:21;;;;;;;;;1.67;1.67;;;;;19.63;56.40;101915.94;6247349;22;45407;-80
2022/06/10 07:30:48;;;;;;;;;2.00;2.00;;;;;19.71;56.40;101924.69;6248031;22;45378;-80
2022/06/10 07:33:14;;;;;;;;;1.33;1.00;;;;;19.83;56.17;101926.19;6247240;22;45440;-80
2022/06/10 07:35:40;;;;;;;;;1.67;1.67;;;;;19.94;55.92;101928.59;6247666;22;45487;-80
2022/06/10 07:38:07;;;;;;;;;2.00;2.00;;;;;20.07;55.90;101934.53;6247711;22;45190;-80
2022/06/10 07:43:24;;;;;;;;;2.67;2.67;;;;;20.38;54.63;101934.66;6247409;22;45530;-80
2022/06/10 07:45:50;;;;;;;;;2.67;2.67;;;;;20.48;54.66;101931.72;6247420;22;45406;-80
2022/06/10 07:48:16;;;;;;;;;2.33;2.00;;;;;20.60;54.24;101930.53;6220234;22;45119;-81
2022/06/10 07:50:43;;;;;;;;;4.00;3.00;;;;;20.70;54.07;101928.50;6219789;22;45243;-80
2022/06/10 07:53:10;;;;;;;;;3.67;3.33;;;;;20.86;53.62;101931.63;6219814;22;45176;-80
2022/06/10 07:55:36;;;;;;;;;2.33;2.00;;;;;20.98;53.42;101923.25;6247428;22;46338;-80
2022/06/10 07:58:02;;;;;;;;;5.33;2.33;;;;;21.16;53.63;101924.53;6247609;22;45345;-80
2022/06/10 08:00:28;;;;;;;;;2.67;2.67;;;;;21.29;53.41;101914.34;6245675;22;45370;-80
2022/06/10 08:02:53;;;;;;;;;4.00;3.00;;;;;21.38;52.86;101921.25;6247539;22;45190;-80
2022/06/10 08:05:19;;;;;;;;;3.67;1.67;;;;;21.41;52.43;101921.16;6247655;22;46378;-80
2022/06/10 08:07:45;;;;;;;;;2.00;2.00;;;;;21.45;52.65;101915.66;6219958;22;45210;-80
2022/06/10 08:10:27;;;;;;;;;2.00;2.00;;;;;21.58;52.46;101919.72;6219923;22;45249;-80
2022/06/10 08:12:52;;;;;;;;;2.67;1.33;;;;;21.67;52.16;101907.84;6247395;22;45299;-80
2022/06/10 08:15:20;;;;;;;;;3.00;2.67;;;;;21.76;52.03;101907.56;6219842;22;46373;-80
2022/06/10 08:17:50;;;;;;;;;2.00;2.00;;;;;21.80;51.44;101903.84;6247383;22;45211;-80
2022/06/10 08:20:24;;;;;;;;;2.67;1.00;;;;;21.80;51.18;101908.31;6246652;22;45370;-81
2022/06/10 08:22:49;;;;;;;;;3.00;2.00;;;;;21.83;51.20;101904.66;6247435;22;45158;-81
2022/06/10 08:25:15;;;;;;;;;2.00;2.00;;;;;21.87;50.86;101899.16;6219459;22;46820;-81
2022/06/10 08:27:41;;;;;;;;;1.00;1.00;;;;;21.91;50.00;101890.09;6247487;22;45347;-81
2022/06/10 08:30:13;;;;;;;;;2.00;2.00;;;;;21.88;49.55;101892.88;6218827;22;45332;-81
2022/06/10 08:32:41;;;;;;;;;5.00;2.33;;;;;21.87;49.02;101885.75;6247653;22;45216;-81
2022/06/10 08:35:07;;;;;;;;;0.67;0.67;;;;;21.92;48.96;101897.22;6219180;22;47617;-80
2022/06/10 08:37:33;;;;;;;;;1.33;1.00;;;;;21.96;48.92;101892.63;6245313;22;45468;-80
2022/06/10 08:39:58;;;;;;;;;1.00;1.00;;;;;21.98;48.33;101893.47;6247421;22;45504;-80
2022/06/10 08:42:44;;;;;;;;;1.00;1.00;;;;;21.94;48.24;101891.78;6219389;22;45344;-80
2022/06/10 08:45:20;;;;;;;;;1.33;0.00;;;;;21.89;47.48;101896.41;6219106;22;47976;-80
2022/06/10 08:47:58;;;;;;;;;1.67;0.00;;;;;21.87;47.52;101900.97;6247476;22;45196;-80
2022/06/10 08:50:45;;;;;;;;;1.67;1.00;;;;;21.84;47.40;101896.59;6247685;22;45202;-81
2022/06/10 08:53:22;;;;;;;;;1.33;0.33;;;;;21.86;47.10;101901.88;6219247;22;45661;-81
2022/06/10 08:56:06;;;;;;;;;0.67;0.67;;;;;21.88;46.82;101898.22;6219842;22;47085;-80
2022/06/10 08:58:56;;;;;;;;;0.67;0.67;;;;;21.91;46.89;101908.84;6247215;22;45355;-80
2022/06/10 09:01:24;;;;;;;;;3.00;1.00;;;;;22.00;46.90;101894.28;6219801;22;45435;-80
2022/06/10 09:04:07;;;;;;;;;3.00;1.33;;;;;22.09;47.03;101898.47;6219579;22;45404;-80
2022/06/10 09:06:45;;;;;;;;;0.33;0.33;;;;;22.16;47.11;101898.22;6219538;22;47062;-80
2022/06/10 09:09:17;;;;;;;;;1.00;1.00;;;;;22.27;46.43;101897.88;6246809;22;45328;-80
2022/06/10 09:11:53;;;;;;;;;2.00;2.00;;;;;22.36;46.51;101897.56;6247097;22;45065;-80
2022/06/10 09:14:22;;;;;;;;;1.67;0.67;;;;;22.49;46.62;101906.06;6219603;22;45181;-80
2022/06/10 09:17:00;;;;;;;;;2.00;2.00;;;;;22.56;46.44;101894.19;6219217;22;47666;-81
2022/06/10 09:20:02;;;;;;;;;1.33;1.33;;;;;22.61;46.79;101894.00;6248376;22;45213;-81
2022/06/10 09:22:42;;;;;;;;;0.00;0.00;;;;;22.68;47.16;101893.72;6247684;22;45307;-80
2022/06/10 09:25:15;;;;;;;;;1.00;1.00;;;;;22.74;46.94;101889.94;6219209;22;45478;-80
2022/06/10 09:27:50;;;;;;;;;2.33;1.67;;;;;22.72;47.13;101893.63;6218924;22;47093;-80
2022/06/10 09:30:20;;;;;;;;;1.33;1.33;;;;;22.70;46.68;101887.44;6247125;22;45213;-80
2022/06/10 09:33:15;;;;;;;;;2.00;2.00;;;;;22.66;47.08;101897.41;6219341;22;45325;-81
2022/06/10 09:35:53;;;;;;;;;1.67;1.67;;;;;22.62;47.16;101893.09;6246664;22;45275;-80
2022/06/10 09:38:22;;;;;;;;;1.33;1.33;;;;;22.60;47.46;101898.50;6219192;22;48296;-80
2022/06/10 09:41:08;;;;;;;;;2.33;2.00;;;;;22.61;47.43;101900.28;6247955;22;45245;-80
2022/06/10 09:43:43;;;;;;;;;1.33;1.33;;;;;22.64;47.60;101905.53;6220679;22;45285;-80
2022/06/10 09:46:36;;;;;;;;;1.00;1.00;;;;;22.70;47.70;101901.75;6248306;22;45170;-80
2022/06/10 09:49:31;;;;;;;;;2.00;2.00;;;;;22.74;47.27;101907.88;6245472;22;47504;-80
2022/06/10 09:52:15;;;;;;;;;3.00;3.00;;;;;22.71;47.28;101898.13;6248092;22;45190;-81
2022/06/10 09:54:58;;;;;;;;;1.00;1.00;;;;;22.74;46.88;101908.75;6245797;22;45216;-80
2022/06/10 09:57:39;;;;;;;;;1.00;0.67;;;;;22.82;46.91;101903.97;6209441;22;45529;-81
2022/06/10 10:00:18;;;;;;;;;2.00;2.00;;;;;22.97;46.83;101904.38;6247789;22;45606;-81
2022/06/10 10:02:59;;;;;;;;;2.33;1.67;;;;;23.13;46.63;101910.06;6247002;22;45363;-81
2022/06/10 10:05:39;;;;;;;;;3.33;2.00;;;;;23.23;46.52;101904.28;6248041;22;45261;-80
2022/06/10 10:08:31;;;;;;;;;0.00;0.00;;;;;23.37;46.47;101908.25;6220087;22;45409;-81
2022/06/10 10:11:08;;;;;;;;;1.00;1.00;;;;;23.49;45.81;101915.81;6247875;22;46095;-81
2022/06/10 10:14:05;;;;;;;;;2.00;2.00;;;;;23.59;45.76;101906.47;6247958;22;45372;-81
2022/06/10 10:16:46;;;;;;;;;2.33;1.33;;;;;23.70;45.32;101904.22;6246912;22;45189;-81
2022/06/10 10:19:43;;;;;;;;;3.00;2.00;;;;;23.83;45.22;101915.41;6247808;22;45525;-81
2022/06/10 10:22:40;;;;;;;;;1.00;1.00;;;;;23.93;44.93;101906.03;6247575;22;46201;-81
2022/06/10 10:25:14;;;;;;;;;2.00;2.00;;;;;23.98;44.88;101909.41;6219981;22;45613;-82
2022/06/10 10:27:40;;;;;;;;;3.00;1.67;;;;;23.96;44.69;101900.50;6245888;22;45455;-80
2022/06/10 10:30:17;;;;;;;;;2.67;1.67;;;;;23.93;44.57;101907.84;6248231;22;45177;-81
2022/06/10 10:32:48;;;;;;;;;3.00;2.00;;;;;23.93;44.52;101906.03;6221393;22;46994;-79
2022/06/10 10:35:27;;;;;;;;;1.67;1.00;;;;;24.03;44.46;101902.94;6247205;22;45305;-80
2022/06/10 10:38:31;;;;;;;;;0.33;0.33;;;;;24.12;44.63;101902.56;6220688;22;45207;-80
2022/06/10 10:40:57;;;;;;;;;1.33;1.00;;;;;24.12;44.28;101907.94;6196352;22;45468;-81
2022/06/10 10:43:31;;;;;;;;;4.00;2.33;;;;;24.08;43.69;101903.63;6247965;22;45198;-81
2022/06/10 10:46:05;;;;;;;;;1.00;1.00;;;;;24.10;43.87;101899.06;6247886;22;45225;-81
2022/06/10 10:48:38;;;;;;;;;2.33;1.33;;;;;24.14;44.16;101898.88;6247692;22;45134;-81
2022/06/10 10:51:19;;;;;;;;;2.67;2.33;;;;;24.23;43.92;101905.69;6247673;22;45364;-81
2022/06/10 10:53:52;;;;;;;;;1.67;1.00;;;;;24.25;43.79;101903.81;6247284;22;45384;-81
2022/06/10 10:56:18;;;;;;;;;1.00;1.00;;;;;24.24;43.46;101907.41;6246165;22;45605;-81
2022/06/10 10:58:49;;;;;;;;;2.00;2.00;;;;;24.28;43.42;101905.50;6248016;22;45182;-81
2022/06/10 11:01:44;;;;;;;;;3.33;1.67;;;;;24.38;43.29;101910.41;6245663;22;45511;-81
2022/06/10 11:04:31;;;;;;;;;2.00;2.00;;;;;24.44;43.36;101906.63;6247407;22;46428;-80
2022/06/10 11:07:04;;;;;;;;;2.33;2.00;;;;;24.64;43.26;101905.72;6247641;22;45246;-81
2022/06/10 11:09:32;;;;;;;;;2.00;2.00;;;;;24.83;43.25;101895.00;6219800;22;45396;-81
2022/06/10 11:12:03;;;;;;;;;3.00;3.00;;;;;24.87;42.53;101908.28;6247713;22;45424;-81
2022/06/10 11:14:38;;;;;;;;;3.00;2.67;;;;;24.80;42.44;101912.19;6219460;22;47497;-81
2022/06/10 11:17:16;;;;;;;;;1.33;1.33;;;;;24.81;42.87;101915.78;6245457;22;45597;-81
2022/06/10 11:20:07;;;;;;;;;2.00;2.00;;;;;24.75;42.57;101905.25;6220126;22;45202;-80
2022/06/10 11:22:39;;;;;;;;;2.33;2.33;;;;;24.77;42.52;101903.38;6246260;22;45647;-80
2022/06/10 11:25:14;;;;;;;;;1.33;1.33;;;;;24.77;42.56;101903.38;6247434;22;45338;-81
2022/06/10 11:27:49;;;;;;;;;1.00;1.00;;;;;24.81;42.55;101922.03;6248121;22;45319;-80
2022/06/10 11:30:14;;;;;;;;;3.00;2.00;;;;;24.93;42.80;101906.25;6248109;22;45233;-81
2022/06/10 11:32:57;;;;;;;;;1.33;1.33;;;;;25.11;42.55;101901.84;6220142;22;45186;-81
2022/06/10 11:35:29;;;;;;;;;2.00;2.00;;;;;25.22;42.13;101903.13;6220137;22;47224;-81
2022/06/10 11:38:24;;;;;;;;;4.00;3.00;;;;;25.27;41.83;101898.41;6219704;22;45499;-81
2022/06/10 11:40:53;;;;;;;;;2.33;1.00;;;;;25.27;41.77;101892.13;6220551;22;45514;-81
2022/06/10 11:43:37;;;;;;;;;3.00;1.00;;;;;25.20;42.02;101891.53;6220411;22;45391;-81
2022/06/10 11:46:15;;;;;;;;;1.00;1.00;;;;;25.22;41.75;101886.94;6247883;22;46135;-81
2022/06/10 11:48:57;;;;;;;;;1.67;1.67;;;;;25.40;42.04;101873.56;6219726;22;45220;-80
2022/06/10 11:51:31;;;;;;;;;1.67;1.67;;;;;25.51;41.83;101885.56;6220416;22;45231;-81
2022/06/10 11:54:15;;;;;;;;;2.33;2.33;;;;;25.58;41.87;101880.78;6247736;22;45202;-81
2022/06/10 11:59:45;;;;;;;;;2.00;1.00;;;;;25.82;41.21;101873.28;6247511;22;45227;-81
2022/06/10 12:02:19;;;;;;;;;1.00;1.00;;;;;25.87;41.16;101875.78;6214990;22;45253;-81